Time;durP1;ratioP1;P1;durP2;ratioP2;P2;SDS_P1;SDS_P2;PMS_P1;PMS_P2;Temp;Humidity;BMP_temperature;BMP_pressure;BME280_temperature;BME280_humidity;BME280_pressure;Samples;Min_cycle;Max_cycle;Signal;HPM_P1;HPM_P2
2021/12/25 00:00:53;;;;;;;;;43.00;37.25;;;;;12.22;76.14;99624.22;5115392;27;46144;-78
2021/12/25 00:03:19;;;;;;;;;35.00;31.50;;;;;12.23;76.43;99627.66;5115686;27;47334;-78
2021/12/25 00:05:47;;;;;;;;;28.50;24.50;;;;;12.22;76.34;99621.56;5109683;27;46341;-78
2021/12/25 00:08:13;;;;;;;;;28.00;25.25;;;;;12.17;76.31;99621.19;5123307;27;46326;-78
2021/12/25 00:10:39;;;;;;;;;29.00;27.50;;;;;12.21;76.32;99622.53;5109765;27;45730;-78
2021/12/25 00:13:04;;;;;;;;;39.00;34.25;;;;;12.18;76.20;99615.78;5109024;27;46278;-78
2021/12/25 00:15:30;;;;;;;;;25.75;24.00;;;;;12.13;76.41;99601.44;5108799;27;46282;-79
2021/12/25 00:17:56;;;;;;;;;29.50;25.00;;;;;12.17;76.21;99597.56;5123333;27;45679;-76
2021/12/25 00:20:21;;;;;;;;;38.50;31.00;;;;;12.22;76.21;99608.44;5110365;27;46421;-77
2021/12/25 00:22:47;;;;;;;;;25.25;22.75;;;;;12.19;76.19;99599.06;5114631;27;45785;-77
2021/12/25 00:25:13;;;;;;;;;26.50;21.75;;;;;12.25;76.45;99599.47;5120787;27;47060;-76
2021/12/25 00:27:51;;;;;;;;;24.25;23.00;;;;;12.22;76.38;99592.69;5110923;27;46272;-76
2021/12/25 00:33:32;;;;;;;;;21.25;17.50;;;;;12.25;76.37;99583.72;5058082;28;45683;-77
2021/12/25 00:35:56;;;;;;;;;21.25;18.50;;;;;12.24;76.39;99582.06;5051602;27;46146;-77
2021/12/25 00:38:22;;;;;;;;;17.00;16.00;;;;;12.27;76.18;99579.97;5066119;28;45685;-78
2021/12/25 00:40:47;;;;;;;;;19.25;18.00;;;;;12.27;76.33;99574.69;5065711;28;45947;-77
2021/12/25 00:43:13;;;;;;;;;17.75;16.00;;;;;12.28;76.24;99570.28;5065138;28;45855;-78
2021/12/25 00:45:38;;;;;;;;;12.25;12.25;;;;;12.28;76.23;99563.22;5056588;28;46870;-77
2021/12/25 00:48:04;;;;;;;;;18.75;14.50;;;;;12.31;75.94;99567.38;5042410;28;45643;-77
2021/12/25 00:50:30;;;;;;;;;17.75;16.75;;;;;12.32;76.10;99571.63;5036663;28;45701;-78
2021/12/25 00:52:55;;;;;;;;;18.50;18.50;;;;;12.24;76.09;99555.78;5042298;28;46450;-78
2021/12/25 00:55:20;;;;;;;;;21.75;18.00;;;;;12.33;75.97;99574.13;5045743;28;47004;-78
2021/12/25 00:57:46;;;;;;;;;20.25;20.00;;;;;12.30;76.16;99570.97;5042646;28;46375;-76
2021/12/25 01:00:13;;;;;;;;;22.75;21.00;;;;;12.33;75.87;99579.38;5040982;28;45805;-78
2021/12/25 01:02:44;;;;;;;;;23.50;19.25;;;;;12.29;76.36;99571.94;4998772;28;48320;-75
2021/12/25 01:05:11;;;;;;;;;21.50;20.25;;;;;12.33;75.99;99571.50;5047072;28;47483;-77
2021/12/25 01:07:37;;;;;;;;;22.00;18.25;;;;;12.34;76.01;99577.59;5051923;28;45778;-77
2021/12/25 01:10:07;;;;;;;;;24.00;21.50;;;;;12.33;76.15;99579.38;5071859;27;46231;-78
2021/12/25 01:12:45;;;;;;;;;19.25;18.50;;;;;12.32;76.19;99580.34;5093922;27;46447;-77
2021/12/25 01:15:11;;;;;;;;;22.00;21.25;;;;;12.30;76.22;99582.31;5093967;27;46235;-78
2021/12/25 01:18:08;;;;;;;;;18.00;17.00;;;;;12.28;76.19;99580.78;5092290;27;45851;-76
2021/12/25 01:30:54;;;;;;;;;21.00;18.50;;;;;12.18;76.12;99610.53;5082545;27;45532;-77
2021/12/25 01:33:45;;;;;;;;;23.25;20.00;;;;;12.16;76.31;99599.34;5100786;27;46453;-78
2021/12/25 01:39:05;;;;;;;;;24.00;20.75;;;;;12.09;76.23;99590.38;5094481;27;45796;-78
2021/12/25 01:41:57;;;;;;;;;22.75;21.25;;;;;12.10;76.31;99591.22;5075327;27;45620;-76
2021/12/25 01:49:44;;;;;;;;;22.50;19.75;;;;;12.07;76.19;99602.00;5083131;27;45953;-78
2021/12/25 01:52:09;;;;;;;;;20.25;18.00;;;;;12.02;76.26;99591.13;5087189;27;45824;-77
2021/12/25 01:54:35;;;;;;;;;18.00;16.00;;;;;11.97;76.10;99588.09;5082895;27;45939;-76
2021/12/25 01:57:01;;;;;;;;;14.50;12.75;;;;;12.01;76.29;99598.16;5092899;27;45714;-78
2021/12/25 01:59:27;;;;;;;;;14.25;13.25;;;;;11.99;76.07;99596.63;5072799;27;45776;-79
2021/12/25 02:01:52;;;;;;;;;16.25;15.50;;;;;11.95;76.15;99585.59;5077408;27;45697;-76
2021/12/25 02:04:18;;;;;;;;;16.25;15.25;;;;;11.94;76.15;99590.97;5075075;27;46010;-75
2021/12/25 02:06:43;;;;;;;;;10.00;7.50;;;;;11.91;76.23;99593.91;5078443;27;45503;-78
2021/12/25 02:09:09;;;;;;;;;15.75;13.50;;;;;11.89;76.12;99593.22;5084207;27;45581;-77
2021/12/25 02:11:36;;;;;;;;;14.25;13.00;;;;;11.83;76.02;99597.22;5068272;27;45892;-78
2021/12/25 02:14:03;;;;;;;;;17.25;15.75;;;;;11.87;76.25;99608.28;5090641;27;46604;-77
2021/12/25 02:16:38;;;;;;;;;17.50;15.00;;;;;11.84;76.07;99606.75;5076595;27;47230;-77
2021/12/25 02:19:12;;;;;;;;;19.50;16.75;;;;;11.84;75.94;99606.75;5073783;27;45766;-74
2021/12/25 02:21:39;;;;;;;;;15.25;15.25;;;;;11.81;76.15;99600.97;5076634;27;45909;-78
2021/12/25 02:24:08;;;;;;;;;15.25;14.00;;;;;11.70;76.10;99576.53;5038305;28;46618;-75
2021/12/25 02:26:35;;;;;;;;;12.75;12.00;;;;;11.83;76.23;99604.28;5073291;27;46181;-75
2021/12/25 02:29:01;;;;;;;;;13.75;12.50;;;;;11.75;76.15;99592.72;5073681;27;45695;-76
2021/12/25 02:31:27;;;;;;;;;18.00;15.25;;;;;11.82;75.86;99605.28;5068315;28;45670;-77
2021/12/25 02:33:53;;;;;;;;;14.00;13.00;;;;;11.81;76.18;99604.44;5079446;27;46815;-77
2021/12/25 02:36:18;;;;;;;;;16.25;14.75;;;;;11.81;76.09;99598.34;5096096;27;47159;-78
2021/12/25 02:38:45;;;;;;;;;16.75;13.50;;;;;11.66;76.15;99587.47;5096199;27;45699;-77
2021/12/25 02:41:10;;;;;;;;;14.00;12.50;;;;;11.72;76.03;99585.06;5109286;27;45871;-76
2021/12/25 02:43:37;;;;;;;;;16.25;13.00;;;;;11.66;75.81;99576.97;5096991;27;46210;-77
2021/12/25 02:46:04;;;;;;;;;13.75;10.75;;;;;11.75;76.31;99590.09;5112713;27;45864;-75
2021/12/25 02:48:32;;;;;;;;;12.25;10.00;;;;;11.73;76.08;99584.13;5111710;27;45953;-78
2021/12/25 02:50:58;;;;;;;;;11.00;10.00;;;;;11.78;76.02;99592.41;5094454;27;45535;-77
2021/12/25 02:53:24;;;;;;;;;10.75;10.25;;;;;11.85;76.04;99595.31;5107381;27;46424;-78
2021/12/25 02:55:50;;;;;;;;;13.50;9.75;;;;;11.83;76.19;99591.16;5093768;27;47074;-75
2021/12/25 02:58:19;;;;;;;;;12.25;10.50;;;;;11.83;76.07;99585.91;5107538;27;45662;-75
2021/12/25 03:01:01;;;;;;;;;15.00;12.00;;;;;11.80;76.04;99583.56;5093718;27;45537;-76
2021/12/25 03:03:26;;;;;;;;;15.00;12.25;;;;;11.82;75.98;99592.16;5096629;27;47755;-78
2021/12/25 03:05:52;;;;;;;;;12.75;12.75;;;;;11.81;76.14;99593.94;5103577;27;45705;-77
2021/12/25 03:08:19;;;;;;;;;13.75;11.25;;;;;11.77;76.22;99597.78;5094949;27;46029;-78
2021/12/25 03:10:45;;;;;;;;;11.75;11.50;;;;;11.83;75.99;99599.03;5093504;27;45666;-78
2021/12/25 03:15:45;;;;;;;;;13.25;13.00;;;;;11.79;76.00;99588.00;5092601;27;46039;-77
2021/12/25 03:18:23;;;;;;;;;17.25;15.00;;;;;11.82;75.84;99589.53;5092823;27;45684;-78
2021/12/25 03:20:52;;;;;;;;;15.75;13.25;;;;;11.87;76.00;99592.53;5106180;27;45739;-77
2021/12/25 03:23:20;;;;;;;;;15.25;11.50;;;;;11.87;75.92;99592.53;5101244;27;46327;-78
2021/12/25 03:25:47;;;;;;;;;12.75;10.00;;;;;11.85;76.03;99592.69;5096197;27;46108;-77
2021/12/25 03:28:15;;;;;;;;;14.50;14.00;;;;;11.84;75.99;99590.19;5093374;27;46122;-78
2021/12/25 03:30:41;;;;;;;;;12.25;10.75;;;;;11.86;75.99;99585.63;5098552;27;46006;-78
2021/12/25 03:33:10;;;;;;;;;18.25;12.50;;;;;11.86;76.25;99591.72;5097437;27;47317;-78
2021/12/25 03:35:35;;;;;;;;;13.75;11.75;;;;;11.83;76.12;99593.78;5107709;27;46460;-77
2021/12/25 03:38:04;;;;;;;;;15.00;12.75;;;;;11.85;75.94;99602.34;5105889;27;45536;-78
2021/12/25 03:40:30;;;;;;;;;14.25;11.50;;;;;11.78;76.18;99596.84;5106689;27;45666;-76
2021/12/25 03:42:55;;;;;;;;;14.50;12.50;;;;;11.80;76.25;99604.56;5092583;27;47244;-78
2021/12/25 03:45:21;;;;;;;;;14.75;11.50;;;;;11.80;76.00;99601.94;5073387;27;45944;-78
2021/12/25 03:47:50;;;;;;;;;15.25;14.00;;;;;11.82;76.02;99613.16;5112426;27;45648;-77
2021/12/25 03:53:10;;;;;;;;;9.00;8.00;;;;;11.87;76.04;99608.28;5102121;27;46330;-78
2021/12/25 03:58:26;;;;;;;;;15.00;14.75;;;;;11.89;76.09;99611.59;5092542;27;45514;-77
2021/12/25 04:00:58;;;;;;;;;14.25;13.00;;;;;11.93;76.21;99612.97;5092731;27;45782;-76
2021/12/25 04:03:38;;;;;;;;;12.00;10.00;;;;;11.90;76.00;99613.25;5092544;27;46605;-78
2021/12/25 04:06:08;;;;;;;;;14.75;14.00;;;;;11.94;76.00;99614.59;5093878;27;46071;-77
2021/12/25 04:08:40;;;;;;;;;17.75;14.25;;;;;11.91;76.11;99621.00;5106347;27;45767;-80
2021/12/25 04:11:12;;;;;;;;;15.00;13.75;;;;;11.95;75.99;99614.47;5075718;27;45946;-78
2021/12/25 04:13:37;;;;;;;;;16.25;13.00;;;;;11.95;75.99;99621.53;5100914;27;46510;-78
2021/12/25 04:16:03;;;;;;;;;15.25;12.50;;;;;11.90;76.14;99614.06;5106265;27;46930;-79
2021/12/25 04:18:29;;;;;;;;;17.00;14.00;;;;;11.95;76.31;99611.84;5095030;27;45705;-76
2021/12/25 04:20:54;;;;;;;;;14.25;13.00;;;;;11.91;75.90;99610.50;5095084;27;46031;-79
2021/12/25 04:23:24;;;;;;;;;18.75;15.25;;;;;11.99;76.18;99615.00;5094562;27;45705;-78
2021/12/25 04:25:50;;;;;;;;;15.75;14.75;;;;;11.93;76.00;99600.66;5095585;27;45755;-77
2021/12/25 04:28:32;;;;;;;;;18.50;16.25;;;;;12.02;76.22;99605.06;5102431;27;45663;-78
2021/12/25 05:03:57;;;;;;;;;20.00;18.50;;;;;11.93;76.20;99605.91;5099846;27;45676;-79
2021/12/25 05:06:23;;;;;;;;;16.75;16.00;;;;;11.92;76.40;99609.53;5093602;27;48614;-78
2021/12/25 05:08:54;;;;;;;;;16.25;14.50;;;;;11.92;76.18;99614.78;5106495;27;46976;-78
2021/12/25 05:11:20;;;;;;;;;17.50;16.00;;;;;11.93;76.28;99620.84;5101756;27;45722;-76
2021/12/25 05:13:48;;;;;;;;;17.25;15.00;;;;;11.92;76.19;99620.03;5094394;27;45805;-77
2021/12/25 05:16:14;;;;;;;;;18.75;15.50;;;;;11.90;76.42;99616.69;5107405;27;46367;-76
2021/12/25 05:18:40;;;;;;;;;19.50;15.00;;;;;11.93;76.48;99624.28;5101248;27;46068;-78
2021/12/25 05:21:07;;;;;;;;;16.00;16.00;;;;;11.91;76.32;99612.28;5112267;27;45640;-79
2021/12/25 05:23:33;;;;;;;;;21.75;15.25;;;;;11.94;76.37;99614.59;5102561;27;46031;-77
2021/12/25 05:25:58;;;;;;;;;20.50;17.50;;;;;11.96;76.44;99618.75;5095316;27;46415;-78
2021/12/25 05:28:26;;;;;;;;;16.25;13.75;;;;;11.94;76.34;99614.59;5095295;27;46093;-76
2021/12/25 05:30:53;;;;;;;;;20.00;16.00;;;;;11.98;76.50;99626.50;5085651;27;45584;-77
2021/12/25 05:33:20;;;;;;;;;17.75;16.25;;;;;11.99;76.44;99625.50;5095797;27;46082;-78
2021/12/25 05:35:45;;;;;;;;;17.50;16.75;;;;;11.94;76.33;99612.81;5094785;27;46463;-78
2021/12/25 05:38:14;;;;;;;;;16.50;13.50;;;;;11.96;76.43;99621.38;5103318;27;45584;-78
2021/12/25 05:40:42;;;;;;;;;19.75;15.75;;;;;11.96;76.27;99621.38;5098428;27;45951;-78
2021/12/25 05:43:08;;;;;;;;;21.25;17.75;;;;;12.01;76.29;99621.78;5094436;27;45662;-78
2021/12/25 05:45:33;;;;;;;;;18.00;15.50;;;;;12.03;76.31;99626.91;5094578;27;46006;-77
2021/12/25 05:47:58;;;;;;;;;18.50;15.75;;;;;12.03;76.38;99627.72;5104350;27;46050;-77
2021/12/25 05:50:24;;;;;;;;;19.25;15.25;;;;;12.05;76.42;99627.56;5098497;27;45711;-77
2021/12/25 05:52:49;;;;;;;;;21.25;16.25;;;;;12.07;76.53;99630.88;5099316;27;45910;-77
2021/12/25 05:55:15;;;;;;;;;15.00;14.50;;;;;12.08;76.29;99630.75;5094528;27;45646;-78
2021/12/25 05:57:40;;;;;;;;;18.25;15.50;;;;;12.03;76.22;99616.41;5094547;27;45924;-78
2021/12/25 06:00:08;;;;;;;;;13.75;13.50;;;;;12.08;76.33;99630.75;5094252;27;45770;-77
2021/12/25 06:02:35;;;;;;;;;21.50;15.75;;;;;11.88;76.44;99597.63;5095579;27;45613;-76
2021/12/25 06:05:03;;;;;;;;;17.75;16.00;;;;;12.09;76.46;99628.97;5093328;27;46600;-75
2021/12/25 06:07:29;;;;;;;;;17.50;16.25;;;;;12.09;76.30;99626.34;5094242;27;46230;-76
2021/12/25 06:09:54;;;;;;;;;18.00;14.75;;;;;12.10;76.14;99633.22;5105764;27;45692;-78
2021/12/25 06:12:20;;;;;;;;;18.50;17.25;;;;;12.09;76.44;99631.59;5101132;27;45714;-75
2021/12/25 06:14:47;;;;;;;;;18.50;15.50;;;;;12.11;76.32;99629.63;5095465;27;46452;-79
2021/12/25 06:17:12;;;;;;;;;16.75;15.75;;;;;12.11;76.19;99629.63;5104831;27;46233;-76
2021/12/25 06:19:37;;;;;;;;;20.75;16.00;;;;;12.11;76.75;99625.22;5098899;27;45731;-78
2021/12/25 06:22:03;;;;;;;;;19.25;16.75;;;;;12.16;76.47;99632.66;5086080;27;45725;-77
2021/12/25 06:24:30;;;;;;;;;16.00;14.50;;;;;12.16;76.19;99637.91;5100867;27;47510;-76
2021/12/25 06:26:55;;;;;;;;;19.50;15.25;;;;;12.18;76.43;99642.06;5078517;27;46239;-79
2021/12/25 06:29:20;;;;;;;;;19.25;15.75;;;;;12.19;76.42;99635.00;5108733;27;45516;-76
2021/12/25 06:31:47;;;;;;;;;16.00;15.75;;;;;12.18;76.30;99644.69;5105065;27;45588;-77
2021/12/25 06:34:12;;;;;;;;;17.50;16.50;;;;;12.05;76.30;99619.69;5096393;27;45810;-77
2021/12/25 06:36:38;;;;;;;;;19.50;17.50;;;;;12.19;76.16;99646.34;5103019;27;46137;-78
2021/12/25 06:39:04;;;;;;;;;22.75;15.00;;;;;12.19;76.42;99648.97;5094233;27;45784;-76
2021/12/25 06:41:30;;;;;;;;;20.25;16.75;;;;;12.19;76.62;99653.38;5094429;27;45726;-78
2021/12/25 06:43:56;;;;;;;;;17.50;16.00;;;;;12.18;76.33;99649.94;5100742;27;47386;-78
2021/12/25 06:46:21;;;;;;;;;17.00;15.25;;;;;12.16;76.36;99643.97;5098771;27;46034;-78
2021/12/25 06:48:47;;;;;;;;;15.25;13.75;;;;;12.19;76.27;99648.13;5104050;27;45716;-77
2021/12/25 06:51:13;;;;;;;;;14.75;14.00;;;;;12.19;76.11;99650.75;5093624;27;45717;-77
2021/12/25 06:53:39;;;;;;;;;14.50;14.25;;;;;12.16;76.42;99641.34;5098256;27;47229;-77
2021/12/25 06:56:04;;;;;;;;;15.25;12.00;;;;;12.19;76.29;99645.50;5113933;27;47117;-77
2021/12/25 06:58:30;;;;;;;;;17.50;14.00;;;;;12.19;76.34;99641.09;5098505;27;45618;-77
2021/12/25 07:00:55;;;;;;;;;18.75;14.50;;;;;12.14;76.20;99634.59;5085468;27;45608;-76
2021/12/25 07:03:21;;;;;;;;;15.75;12.50;;;;;12.12;76.29;99633.91;5093238;27;46595;-78
2021/12/25 07:05:46;;;;;;;;;16.50;14.25;;;;;12.21;76.12;99648.81;5092881;27;45857;-77
2021/12/25 07:08:11;;;;;;;;;16.25;13.75;;;;;12.20;76.11;99647.97;5106856;27;45590;-79
2021/12/25 07:10:37;;;;;;;;;17.75;15.25;;;;;12.19;76.42;99653.38;5095448;27;45700;-78
2021/12/25 07:13:03;;;;;;;;;18.75;16.25;;;;;12.20;76.17;99655.03;5082766;27;47523;-78
2021/12/25 07:15:28;;;;;;;;;16.25;14.50;;;;;12.20;76.47;99652.41;5105189;27;46720;-78
2021/12/25 07:17:54;;;;;;;;;17.75;15.75;;;;;12.20;76.09;99655.84;5092960;27;45728;-77
2021/12/25 07:20:19;;;;;;;;;19.25;15.50;;;;;12.14;76.34;99637.25;5083158;27;46016;-77
2021/12/25 07:22:45;;;;;;;;;19.75;16.00;;;;;12.13;76.37;99639.03;5112636;27;47588;-78
2021/12/25 07:25:10;;;;;;;;;16.50;14.50;;;;;12.18;76.48;99651.72;5076265;27;47251;-77
2021/12/25 07:27:36;;;;;;;;;18.50;17.25;;;;;12.14;76.07;99642.50;5079298;27;45960;-78
2021/12/25 07:30:05;;;;;;;;;19.50;18.00;;;;;12.19;76.34;99648.13;5093165;27;45659;-77
2021/12/25 07:32:30;;;;;;;;;19.00;16.50;;;;;12.05;76.35;99632.81;5100250;27;47577;-78
2021/12/25 07:34:56;;;;;;;;;18.75;15.75;;;;;12.16;76.39;99646.63;5102057;27;46112;-79
2021/12/25 07:37:24;;;;;;;;;18.00;16.00;;;;;12.17;76.18;99644.81;5097263;27;45999;-78
2021/12/25 07:39:50;;;;;;;;;17.75;16.00;;;;;12.19;76.48;99648.13;5088768;27;45866;-77
2021/12/25 07:42:15;;;;;;;;;20.00;17.00;;;;;12.19;76.26;99650.75;5093160;27;46473;-75
2021/12/25 07:44:42;;;;;;;;;18.50;15.50;;;;;12.20;76.27;99655.03;5097240;27;47144;-75
2021/12/25 07:47:11;;;;;;;;;7.00;3.00;;;;;12.18;76.33;99652.56;5097592;27;45993;-74
2021/12/25 07:49:37;;;;;;;;;17.25;15.00;;;;;12.19;76.33;99654.22;5099266;27;45743;-72
2021/12/25 07:52:04;;;;;;;;;18.75;15.25;;;;;12.25;76.10;99649.38;5103232;27;47969;-75
2021/12/25 07:54:29;;;;;;;;;18.75;17.00;;;;;12.26;76.34;99659.69;5100687;27;45775;-76
2021/12/25 07:56:55;;;;;;;;;22.50;17.75;;;;;12.27;76.26;99658.75;5105225;27;45691;-79
2021/12/25 07:59:20;;;;;;;;;19.75;17.50;;;;;12.29;76.26;99662.06;5109615;27;45926;-76
2021/12/25 08:01:46;;;;;;;;;15.00;15.00;;;;;12.30;76.39;99657.63;5103723;27;46335;-81
2021/12/25 08:04:12;;;;;;;;;23.75;17.00;;;;;12.32;76.20;99666.19;5103606;27;45721;-74
2021/12/25 08:06:39;;;;;;;;;16.75;16.50;;;;;12.33;76.45;99666.06;5098017;27;45954;-75
2021/12/25 08:09:05;;;;;;;;;16.50;14.75;;;;;12.34;76.23;99662.47;5096642;27;45966;-74
2021/12/25 08:11:31;;;;;;;;;15.75;13.50;;;;;12.35;76.24;99665.91;5104130;27;47353;-80
2021/12/25 08:13:56;;;;;;;;;19.00;17.00;;;;;12.33;76.25;99671.31;5100334;27;47090;-79
2021/12/25 08:16:22;;;;;;;;;18.00;15.75;;;;;12.37;76.39;99672.66;5103007;27;45552;-79
2021/12/25 08:18:48;;;;;;;;;18.25;15.50;;;;;12.38;76.07;99676.94;5102034;27;45680;-76
2021/12/25 08:21:13;;;;;;;;;16.25;15.75;;;;;12.36;76.02;99675.47;5095416;27;49180;-78
2021/12/25 08:23:39;;;;;;;;;18.50;17.25;;;;;12.38;75.95;99671.69;5099574;27;45796;-76
2021/12/25 08:26:06;;;;;;;;;18.75;16.75;;;;;12.41;76.18;99673.22;5102022;27;45830;-79
2021/12/25 08:28:31;;;;;;;;;18.00;16.50;;;;;12.41;76.18;99673.22;5098618;27;45852;-76
2021/12/25 08:30:57;;;;;;;;;18.50;15.25;;;;;12.39;76.09;99672.53;5105596;27;47183;-79
2021/12/25 08:33:22;;;;;;;;;17.75;16.50;;;;;12.39;76.27;99670.72;5103380;27;46183;-79
2021/12/25 08:35:48;;;;;;;;;17.50;14.75;;;;;12.36;75.92;99664.94;5099087;27;45787;-77
2021/12/25 08:38:14;;;;;;;;;24.00;18.00;;;;;12.36;76.00;99675.47;5111097;27;46023;-77
2021/12/25 08:40:40;;;;;;;;;21.00;15.75;;;;;12.40;76.09;99671.56;5102073;27;45694;-76
2021/12/25 08:43:06;;;;;;;;;21.50;16.75;;;;;12.38;75.75;99678.75;5093700;27;46026;-77
2021/12/25 08:45:46;;;;;;;;;19.00;16.25;;;;;12.37;75.98;99682.34;5098134;27;46827;-79
2021/12/25 08:48:20;;;;;;;;;15.50;14.00;;;;;12.38;75.83;99682.22;5097196;27;46104;-75
2021/12/25 08:50:50;;;;;;;;;19.50;17.50;;;;;12.33;75.96;99671.31;5097008;27;47153;-76
2021/12/25 08:53:16;;;;;;;;;20.00;18.00;;;;;12.38;76.06;99687.47;5100115;27;46177;-78
2021/12/25 08:55:43;;;;;;;;;18.00;16.50;;;;;12.36;76.10;99676.25;5099651;27;45572;-77
2021/12/25 08:58:09;;;;;;;;;20.75;17.00;;;;;12.40;75.75;99687.31;5095165;27;45832;-79
2021/12/25 09:00:34;;;;;;;;;20.25;16.50;;;;;12.38;75.82;99681.38;5093640;27;45849;-77
2021/12/25 09:03:00;;;;;;;;;13.25;12.25;;;;;12.41;75.93;99692.44;5107154;27;46148;-78
2021/12/25 09:05:26;;;;;;;;;18.75;16.25;;;;;12.39;75.96;99688.28;5104878;27;45678;-76
2021/12/25 09:07:51;;;;;;;;;17.75;12.50;;;;;12.43;76.09;99692.28;5093694;27;45867;-80
2021/12/25 09:10:18;;;;;;;;;17.00;15.75;;;;;12.28;75.71;99667.44;5103639;27;47242;-79
2021/12/25 09:12:45;;;;;;;;;16.00;15.00;;;;;12.41;75.87;99689.81;5081494;27;46359;-75
2021/12/25 09:15:11;;;;;;;;;17.25;16.75;;;;;12.39;76.20;99689.13;5096699;27;45663;-77
2021/12/25 09:17:38;;;;;;;;;15.50;13.75;;;;;12.37;76.22;99692.84;5101912;27;45815;-75
2021/12/25 09:20:05;;;;;;;;;16.25;14.00;;;;;12.38;75.93;99697.13;5089385;27;46232;-76
2021/12/25 09:22:31;;;;;;;;;17.00;14.00;;;;;12.38;75.91;99699.75;5104071;27;46036;-77
2021/12/25 09:24:56;;;;;;;;;15.50;14.50;;;;;12.36;75.66;99699.09;5093056;27;45687;-80
2021/12/25 09:27:22;;;;;;;;;18.75;15.25;;;;;12.37;75.79;99700.72;5095647;27;45921;-75
2021/12/25 09:29:48;;;;;;;;;19.75;15.75;;;;;12.37;75.73;99703.34;5093505;27;47494;-80
2021/12/25 09:32:13;;;;;;;;;17.25;15.50;;;;;12.39;75.71;99709.31;5089229;27;47934;-78
2021/12/25 09:34:39;;;;;;;;;18.00;15.00;;;;;12.38;75.92;99711.09;5099461;27;45909;-76
2021/12/25 09:37:06;;;;;;;;;18.00;15.00;;;;;12.36;75.74;99707.78;5113498;27;45623;-76
2021/12/25 09:39:32;;;;;;;;;18.25;16.50;;;;;12.34;75.61;99709.75;5082092;27;48856;-75
2021/12/25 09:41:57;;;;;;;;;13.75;12.75;;;;;12.30;76.00;99699.66;5096559;27;45812;-75
2021/12/25 09:44:23;;;;;;;;;17.00;16.50;;;;;12.33;75.78;99705.44;5101673;27;45755;-76
2021/12/25 09:46:48;;;;;;;;;14.25;12.50;;;;;12.30;75.75;99704.91;5084343;27;47064;-75
2021/12/25 09:49:14;;;;;;;;;11.50;10.25;;;;;12.28;75.80;99712.94;5100295;27;46203;-76
2021/12/25 09:51:39;;;;;;;;;13.00;11.50;;;;;12.28;75.63;99717.34;5082265;27;47451;-77
2021/12/25 09:54:11;;;;;;;;;15.75;11.50;;;;;12.26;75.71;99708.78;5099802;27;45679;-75
2021/12/25 09:56:39;;;;;;;;;16.50;15.00;;;;;12.24;76.02;99705.47;5092324;27;45824;-77
2021/12/25 09:59:06;;;;;;;;;11.25;11.00;;;;;12.24;75.81;99718.59;5093662;27;47658;-76
2021/12/25 10:01:34;;;;;;;;;11.25;10.75;;;;;12.24;75.92;99711.56;5111194;27;46459;-76
2021/12/25 10:04:00;;;;;;;;;16.75;13.00;;;;;12.26;75.88;99712.22;5101098;27;45721;-75
2021/12/25 10:06:42;;;;;;;;;14.25;11.25;;;;;12.22;75.79;99708.25;5099349;27;45758;-76
2021/12/25 10:09:18;;;;;;;;;17.50;15.00;;;;;12.21;75.81;99714.44;5106170;27;47447;-78
2021/12/25 10:11:59;;;;;;;;;15.75;14.50;;;;;12.25;75.71;99713.22;5104820;27;46278;-79
2021/12/25 10:14:25;;;;;;;;;20.00;15.25;;;;;12.25;75.64;99715.03;5098405;27;45782;-75
2021/12/25 10:16:50;;;;;;;;;17.00;16.00;;;;;12.26;75.63;99711.41;5106002;27;45753;-79
2021/12/25 10:19:21;;;;;;;;;16.75;16.25;;;;;12.28;75.67;99706.84;5092285;27;47522;-75
2021/12/25 10:21:47;;;;;;;;;17.50;14.75;;;;;12.16;75.59;99675.50;5097660;27;46526;-79
2021/12/25 10:24:18;;;;;;;;;16.75;16.00;;;;;12.36;75.54;99702.53;5111939;27;45617;-78
2021/12/25 10:26:48;;;;;;;;;19.75;16.00;;;;;12.31;75.90;99686.38;5093195;27;45730;-76
2021/12/25 10:29:19;;;;;;;;;14.00;14.00;;;;;12.40;75.72;99696.03;5103778;27;45908;-76
2021/12/25 10:31:45;;;;;;;;;17.25;16.00;;;;;12.46;75.82;99698.09;5093497;27;45648;-78
2021/12/25 10:34:22;;;;;;;;;17.75;16.00;;;;;12.51;75.84;99705.53;5094808;27;45812;-77
2021/12/25 10:36:49;;;;;;;;;18.50;16.25;;;;;12.52;75.75;99697.50;5091813;27;45921;-76
2021/12/25 10:39:20;;;;;;;;;21.25;16.25;;;;;12.51;75.34;99698.50;5094426;27;46517;-75
2021/12/25 10:41:58;;;;;;;;;16.50;16.00;;;;;12.50;75.78;99690.75;5101378;27;46826;-74
2021/12/25 10:44:28;;;;;;;;;17.25;15.25;;;;;12.50;75.75;99691.56;5092921;27;45805;-73
2021/12/25 10:47:02;;;;;;;;;18.00;17.75;;;;;12.53;75.62;99700.94;5106532;27;46316;-75
2021/12/25 10:49:34;;;;;;;;;15.00;13.50;;;;;12.37;75.74;99680.53;5081675;27;48549;-76
2021/12/25 10:52:29;;;;;;;;;18.50;17.00;;;;;12.53;75.66;99700.94;5097423;27;46246;-73
2021/12/25 10:55:01;;;;;;;;;17.00;16.00;;;;;12.54;75.61;99690.31;5091518;27;45888;-78
2021/12/25 10:57:30;;;;;;;;;18.00;15.00;;;;;12.55;75.66;99689.34;5110024;27;46183;-75
2021/12/25 10:59:56;;;;;;;;;17.25;16.25;;;;;12.57;75.76;99691.84;5097525;27;45794;-75
2021/12/25 11:02:33;;;;;;;;;18.50;14.75;;;;;12.59;75.69;99692.50;5092381;27;46090;-77
2021/12/25 11:04:59;;;;;;;;;16.50;15.00;;;;;12.60;75.25;99683.66;5091742;27;45620;-75
2021/12/25 11:07:25;;;;;;;;;21.75;18.00;;;;;12.63;75.12;99672.03;5101883;27;45651;-77
2021/12/25 11:10:09;;;;;;;;;17.75;16.50;;;;;12.65;75.35;99670.06;5094607;27;46443;-74
2021/12/25 11:12:36;;;;;;;;;18.00;16.00;;;;;12.66;75.22;99671.72;5100621;27;45903;-73
2021/12/25 11:15:15;;;;;;;;;17.00;15.75;;;;;12.70;75.50;99662.56;5109589;27;46396;-76
2021/12/25 11:17:43;;;;;;;;;18.00;15.50;;;;;12.71;75.36;99658.97;5099248;27;45750;-76
2021/12/25 11:20:21;;;;;;;;;19.00;17.25;;;;;12.74;75.46;99663.97;5092267;27;47268;-75
2021/12/25 11:22:51;;;;;;;;;18.50;16.50;;;;;12.76;75.22;99662.00;5091791;27;46433;-75
2021/12/25 11:25:19;;;;;;;;;17.00;14.75;;;;;12.82;75.47;99659.63;5092111;27;45849;-76
2021/12/25 11:27:46;;;;;;;;;17.50;14.75;;;;;12.87;75.19;99656.53;5094953;27;45691;-76
2021/12/25 11:30:12;;;;;;;;;15.75;15.75;;;;;12.90;74.98;99653.63;5093742;27;45623;-76
2021/12/25 11:32:38;;;;;;;;;17.75;14.75;;;;;12.94;75.17;99652.38;5091806;27;47256;-79
2021/12/25 11:35:03;;;;;;;;;18.75;18.00;;;;;12.98;75.12;99662.44;5102691;27;46234;-76
2021/12/25 11:37:29;;;;;;;;;18.25;17.50;;;;;12.97;75.06;99646.78;5091227;27;45688;-75
2021/12/25 11:39:55;;;;;;;;;19.00;16.50;;;;;13.04;75.33;99651.31;5091869;27;47399;-78
2021/12/25 11:42:24;;;;;;;;;16.00;15.00;;;;;13.08;74.98;99646.59;5091988;27;46264;-79
2021/12/25 11:44:53;;;;;;;;;20.00;19.25;;;;;13.08;75.12;99643.13;5101333;27;45709;-78
2021/12/25 11:47:39;;;;;;;;;17.00;14.50;;;;;13.13;75.08;99644.38;5094979;27;45750;-78
2021/12/25 11:50:17;;;;;;;;;17.50;15.75;;;;;13.16;74.96;99643.25;5092195;27;46159;-78
2021/12/25 11:53:19;;;;;;;;;20.50;17.50;;;;;13.17;75.02;99643.09;5099581;27;47032;-79
2021/12/25 11:56:13;;;;;;;;;18.00;15.75;;;;;13.19;75.06;99635.88;5102341;27;46495;-78
2021/12/25 11:58:39;;;;;;;;;16.50;15.75;;;;;13.16;75.35;99628.31;5096335;27;45759;-79
2021/12/25 12:01:29;;;;;;;;;20.00;16.00;;;;;13.22;75.41;99635.59;5101070;27;46806;-78
2021/12/25 12:03:56;;;;;;;;;21.00;16.75;;;;;13.24;75.27;99635.44;5090075;27;47424;-78
2021/12/25 12:06:46;;;;;;;;;18.00;14.25;;;;;13.28;74.80;99636.81;5104529;27;45566;-77
2021/12/25 12:09:15;;;;;;;;;14.25;13.00;;;;;13.29;74.97;99631.38;5090937;27;45750;-75
2021/12/25 12:11:45;;;;;;;;;17.25;16.00;;;;;13.27;74.79;99635.97;5094247;27;47307;-79
2021/12/25 12:14:13;;;;;;;;;16.50;13.50;;;;;13.30;74.68;99629.56;5098675;27;47613;-78
2021/12/25 12:16:41;;;;;;;;;16.75;15.50;;;;;13.26;74.55;99631.69;5094119;27;45807;-79
2021/12/25 12:19:31;;;;;;;;;16.00;13.75;;;;;13.28;74.58;99634.97;5102500;27;45964;-78
2021/12/25 12:26:02;;;;;;;;;17.25;15.00;;;;;13.32;75.03;99633.72;5081183;27;45787;-77
2021/12/25 12:28:02;;;;;;;;;15.25;14.00;;;;;13.31;74.93;99629.44;5089365;27;45791;-80